createdAt,value
2019-04-21T00:00:39.699Z,15.90
2019-04-21T00:03:15.171Z,15.90
2019-04-21T00:05:57.199Z,15.80
2019-04-21T00:08:39.505Z,15.70
2019-04-21T00:11:02.772Z,15.70
2019-04-21T00:13:31.216Z,15.60
2019-04-21T00:15:49.960Z,15.60
2019-04-21T00:18:53.199Z,15.50
2019-04-21T00:21:24.439Z,15.50
2019-04-21T00:24:01.627Z,15.40
2019-04-21T00:26:35.159Z,15.40
2019-04-21T00:29:09.180Z,15.40
2019-04-21T00:31:34.101Z,15.40
2019-04-21T00:33:50.177Z,15.30
2019-04-21T00:36:25.993Z,15.20
2019-04-21T00:39:23.215Z,15.20
2019-04-21T00:41:43.795Z,15.10
2019-04-21T00:44:04.095Z,15.00
2019-04-21T00:46:35.752Z,15.00
2019-04-21T00:49:05.946Z,15.00
2019-04-21T00:51:54.169Z,14.90
2019-04-21T00:54:26.258Z,14.90
2019-04-21T00:56:56.708Z,14.90
2019-04-21T00:59:28.214Z,14.80
2019-04-21T01:01:55.512Z,14.80
2019-04-21T01:04:26.358Z,14.70
2019-04-21T01:06:55.623Z,14.60
2019-04-21T01:09:26.648Z,14.60
2019-04-21T01:11:55.237Z,14.50
2019-04-21T01:14:35.939Z,14.50
2019-04-21T01:17:00.344Z,14.40
2019-04-21T01:19:32.144Z,14.40
2019-04-21T01:21:38.249Z,14.40
2019-04-21T01:24:13.777Z,14.40
2019-04-21T01:26:48.320Z,14.40
2019-04-21T01:29:34.383Z,14.30
2019-04-21T01:32:05.164Z,14.30
2019-04-21T01:34:34.559Z,14.30
2019-04-21T01:36:58.654Z,14.30
2019-04-21T01:39:35.232Z,14.30
2019-04-21T01:42:04.955Z,14.20
2019-04-21T01:44:36.200Z,14.20
2019-04-21T01:46:59.806Z,14.10
2019-04-21T01:49:26.668Z,14.10
2019-04-21T01:52:17.882Z,14.10
2019-04-21T01:55:12.386Z,14.00
2019-04-21T01:58:03.324Z,14.00
2019-04-21T02:00:56.815Z,13.90
2019-04-21T02:03:48.723Z,13.90
2019-04-21T02:06:15.983Z,13.80
2019-04-21T02:08:34.000Z,13.80
2019-04-21T02:11:12.528Z,13.70
2019-04-21T02:13:35.282Z,13.70
2019-04-21T02:16:08.448Z,13.60
2019-04-21T02:18:33.468Z,13.60
2019-04-21T02:20:57.120Z,13.50
2019-04-21T02:23:46.415Z,13.40
2019-04-21T02:26:09.559Z,13.40
2019-04-21T02:31:22.633Z,13.40
2019-04-21T02:33:56.195Z,13.40
2019-04-21T02:39:02.433Z,13.40
2019-04-21T02:41:21.419Z,13.40
2019-04-21T02:44:02.577Z,13.40
2019-04-21T02:46:33.311Z,13.40
2019-04-21T02:49:13.394Z,13.40
2019-04-21T02:51:34.630Z,13.40
2019-04-21T02:59:06.804Z,13.40
2019-04-21T03:01:52.324Z,13.40
2019-04-21T03:04:30.324Z,13.50
2019-04-21T03:07:09.730Z,13.40
2019-04-21T03:09:43.143Z,13.40
2019-04-21T03:12:11.234Z,13.40
2019-04-21T03:14:50.292Z,13.30
2019-04-21T03:17:14.626Z,13.30
2019-04-21T03:25:20.447Z,13.10
2019-04-21T03:29:48.281Z,13.10
2019-04-21T03:32:48.026Z,13.10
2019-04-21T03:35:37.910Z,13.10
2019-04-21T03:37:34.990Z,13.10
2019-04-21T03:39:50.687Z,13.00
2019-04-21T03:42:26.880Z,13.00
2019-04-21T03:44:45.698Z,12.90
2019-04-21T03:47:24.898Z,12.90
2019-04-21T03:49:54.317Z,12.90
2019-04-21T03:52:38.818Z,12.80
2019-04-21T03:58:15.122Z,12.80
2019-04-21T04:00:42.762Z,12.80
2019-04-21T04:03:42.105Z,12.70
2019-04-21T04:06:03.514Z,12.60
2019-04-21T04:11:15.178Z,12.60
2019-04-21T04:13:47.707Z,12.50
2019-04-21T04:16:10.615Z,12.50
2019-04-21T04:18:48.836Z,12.50
2019-04-21T04:21:20.781Z,12.40
2019-04-21T04:23:45.634Z,12.40
2019-04-21T04:26:17.062Z,12.40
2019-04-21T04:31:28.797Z,12.40
2019-04-21T04:33:58.080Z,12.40
2019-04-21T04:39:02.632Z,12.30
2019-04-21T04:44:07.113Z,12.20
2019-04-21T04:46:26.350Z,12.20
2019-04-21T04:49:01.804Z,12.10
2019-04-21T04:51:56.671Z,12.10
2019-04-21T04:53:50.862Z,12.10
2019-04-21T04:56:29.129Z,12.10
2019-04-21T05:06:42.091Z,12.10
2019-04-21T05:21:48.055Z,12.30
2019-04-21T05:24:16.579Z,12.30
2019-04-21T05:26:27.532Z,12.30
2019-04-21T05:28:55.488Z,12.40
2019-04-21T05:32:12.840Z,12.40
2019-04-21T05:34:31.154Z,12.40
2019-04-21T05:37:03.913Z,12.50
2019-04-21T05:40:01.327Z,12.50
2019-04-21T05:42:34.188Z,12.50
2019-04-21T05:45:21.095Z,12.60
2019-04-21T05:48:13.245Z,12.60
2019-04-21T05:50:27.992Z,12.60
2019-04-21T05:53:00.224Z,12.70
2019-04-21T05:55:42.691Z,12.70
2019-04-21T05:58:18.005Z,12.70
2019-04-21T06:01:02.017Z,12.80
2019-04-21T06:03:17.601Z,12.80
2019-04-21T06:05:53.361Z,12.80
2019-04-21T06:08:13.357Z,12.90
2019-04-21T06:10:49.281Z,12.90
2019-04-21T06:13:19.817Z,13.00
2019-04-21T06:15:50.095Z,13.00
2019-04-21T06:18:21.863Z,13.10
2019-04-21T06:20:46.711Z,13.10
2019-04-21T06:23:21.317Z,13.10
2019-04-21T06:26:19.788Z,13.10
2019-04-21T06:28:30.598Z,13.20
2019-04-21T06:30:59.331Z,13.10
2019-04-21T06:33:27.558Z,13.10
2019-04-21T06:36:23.971Z,13.20
2019-04-21T06:46:33.565Z,13.20
2019-04-21T06:56:39.696Z,13.10
2019-04-21T06:59:01.492Z,13.00
2019-04-21T07:01:39.009Z,13.10
2019-04-21T07:04:11.197Z,13.10
2019-04-21T07:06:37.322Z,13.20
2019-04-21T07:11:33.422Z,13.30
2019-04-21T07:14:22.598Z,13.30
2019-04-21T07:16:38.793Z,13.30
2019-04-21T07:19:13.105Z,13.40
2019-04-21T07:21:43.023Z,13.40
2019-04-21T07:24:14.199Z,13.40
2019-04-21T07:26:39.166Z,13.30
2019-04-21T07:29:14.272Z,13.30
2019-04-21T07:31:46.998Z,13.30
2019-04-21T07:34:16.083Z,13.20
2019-04-21T07:36:52.390Z,13.30
2019-04-21T07:39:15.411Z,13.30
2019-04-21T07:41:42.466Z,13.30
2019-04-21T07:44:04.128Z,13.40
2019-04-21T07:46:33.719Z,13.50
2019-04-21T07:49:44.667Z,13.60
2019-04-21T07:52:39.524Z,13.70
2019-04-21T07:55:23.619Z,13.70
2019-04-21T07:57:47.479Z,13.80
2019-04-21T08:00:20.710Z,13.80
2019-04-21T08:03:05.525Z,13.90
2019-04-21T08:07:57.178Z,14.00
2019-04-21T08:10:16.818Z,14.10
2019-04-21T08:12:41.907Z,14.20
2019-04-21T08:15:19.414Z,14.20
2019-04-21T08:17:47.163Z,14.20
2019-04-21T08:20:21.591Z,14.20
2019-04-21T08:22:55.156Z,14.30
2019-04-21T08:25:20.733Z,14.40
2019-04-21T08:27:55.508Z,14.40
2019-04-21T08:30:29.164Z,14.50
2019-04-21T08:33:02.530Z,14.60
2019-04-21T08:37:54.990Z,14.70
2019-04-21T08:40:31.629Z,14.80
2019-04-21T08:42:58.195Z,14.80
2019-04-21T08:48:02.547Z,15.00
2019-04-21T08:50:30.593Z,15.00
2019-04-21T08:53:03.960Z,15.10
2019-04-21T08:55:40.198Z,15.10
2019-04-21T09:01:33.343Z,15.40
2019-04-21T09:04:11.678Z,15.50
2019-04-21T09:07:02.683Z,15.60
2019-04-21T09:09:03.717Z,15.60
2019-04-21T09:11:36.251Z,15.70
2019-04-21T09:14:07.060Z,15.80
2019-04-21T09:16:35.189Z,15.80
2019-04-21T09:19:05.782Z,16.00
2019-04-21T09:21:57.514Z,16.20
2019-04-21T09:24:14.771Z,16.30
2019-04-21T09:26:43.519Z,16.30
2019-04-21T09:29:05.990Z,16.50
2019-04-21T09:31:30.983Z,16.60
2019-04-21T09:34:00.350Z,16.60
2019-04-21T09:36:35.098Z,16.70
2019-04-21T09:39:06.938Z,16.80
2019-04-21T09:41:30.055Z,16.90
2019-04-21T09:44:01.238Z,17.00
2019-04-21T09:46:34.129Z,17.10
2019-04-21T09:49:05.742Z,17.20
2019-04-21T09:51:32.596Z,17.30
2019-04-21T09:54:08.178Z,17.40
2019-04-21T09:56:43.642Z,17.50
2019-04-21T09:59:13.221Z,17.60
2019-04-21T10:01:50.088Z,17.80
2019-04-21T10:04:05.861Z,17.80
2019-04-21T10:06:35.390Z,18.00
2019-04-21T10:09:07.930Z,18.10
2019-04-21T10:11:37.641Z,18.20
2019-04-21T10:14:07.476Z,18.30
2019-04-21T10:17:00.407Z,18.40
2019-04-21T10:19:29.810Z,18.40
2019-04-21T10:22:01.193Z,18.50
2019-04-21T10:24:30.652Z,18.60
2019-04-21T10:27:02.517Z,18.70
2019-04-21T10:29:32.969Z,18.70
2019-04-21T10:32:01.984Z,18.70
2019-04-21T10:34:31.488Z,18.80
2019-04-21T10:37:00.868Z,18.90
2019-04-21T10:39:30.035Z,19.00
2019-04-21T10:41:59.601Z,19.10
2019-04-21T10:44:29.441Z,19.20
2019-04-21T10:46:58.609Z,19.20
2019-04-21T10:49:28.705Z,19.30
2019-04-21T10:51:59.043Z,19.50
2019-04-21T10:54:42.115Z,19.50
2019-04-21T10:57:02.076Z,19.70
2019-04-21T10:59:31.628Z,19.90
2019-04-21T11:02:04.879Z,20.00
2019-04-21T11:04:37.357Z,20.10
2019-04-21T11:07:26.167Z,20.20
2019-04-21T11:09:53.955Z,20.30
2019-04-21T11:12:23.969Z,20.30
2019-04-21T11:14:53.560Z,20.40
2019-04-21T11:17:23.955Z,20.50
2019-04-21T11:19:52.995Z,20.60
2019-04-21T11:22:23.049Z,20.60
2019-04-21T11:24:53.262Z,20.70
2019-04-21T11:27:22.687Z,20.80
2019-04-21T11:29:51.887Z,20.90
2019-04-21T11:32:21.229Z,21.00
2019-04-21T11:34:51.405Z,21.10
2019-04-21T11:37:24.111Z,21.10
2019-04-21T11:40:02.641Z,21.20
2019-04-21T11:42:30.640Z,21.20
2019-04-21T11:45:00.656Z,21.30
2019-04-21T11:47:38.470Z,21.40
2019-04-21T11:50:07.906Z,21.50
2019-04-21T11:52:36.999Z,21.60
2019-04-21T11:55:06.843Z,21.70
2019-04-21T11:57:41.088Z,21.70
2019-04-21T12:00:07.524Z,21.80
2019-04-21T12:02:37.408Z,21.90
2019-04-21T12:05:07.544Z,21.90
2019-04-21T12:07:37.603Z,22.00
2019-04-21T12:10:07.053Z,22.10
2019-04-21T12:12:37.157Z,22.20
2019-04-21T12:15:08.028Z,22.20
2019-04-21T12:17:37.995Z,22.20
2019-04-21T12:20:08.624Z,22.30
2019-04-21T12:22:39.119Z,22.30
2019-04-21T12:25:13.229Z,22.20
2019-04-21T12:27:43.882Z,22.20
2019-04-21T12:30:13.917Z,22.20
2019-04-21T12:33:12.079Z,22.40
2019-04-21T12:35:41.865Z,22.60
2019-04-21T12:38:11.377Z,22.60
2019-04-21T12:40:40.524Z,22.60
2019-04-21T12:43:10.592Z,22.70
2019-04-21T12:45:40.125Z,22.70
2019-04-21T12:48:10.439Z,22.80
2019-04-21T12:50:41.568Z,22.80
2019-04-21T12:53:13.862Z,22.70
2019-04-21T12:55:45.430Z,22.70
2019-04-21T12:58:13.152Z,22.80
2019-04-21T13:00:42.896Z,22.80
2019-04-21T13:03:12.243Z,22.80
2019-04-21T13:05:41.348Z,22.90
2019-04-21T13:08:11.477Z,23.00
2019-04-21T13:10:42.180Z,23.10
2019-04-21T13:13:12.152Z,23.30
2019-04-21T13:15:41.420Z,23.40
2019-04-21T13:18:10.538Z,23.30
2019-04-21T13:20:40.148Z,23.30
2019-04-21T13:23:10.177Z,23.20
2019-04-21T13:25:39.547Z,23.00
2019-04-21T13:28:08.612Z,23.00
2019-04-21T13:30:38.068Z,23.00
2019-04-21T13:33:07.446Z,23.10
2019-04-21T13:35:37.197Z,23.00
2019-04-21T13:38:18.858Z,23.00
2019-04-21T13:41:22.733Z,23.00
2019-04-21T13:43:41.153Z,23.10
2019-04-21T13:46:11.947Z,23.10
2019-04-21T13:48:42.512Z,23.00
2019-04-21T13:51:13.220Z,23.00
2019-04-21T13:53:43.799Z,23.00
2019-04-21T13:56:14.302Z,23.10
2019-04-21T13:58:44.364Z,23.10
2019-04-21T14:01:13.927Z,23.20
2019-04-21T14:03:44.024Z,23.10
2019-04-21T14:06:14.147Z,23.10
2019-04-21T14:08:45.280Z,23.10
2019-04-21T14:11:15.564Z,23.20
2019-04-21T14:13:45.022Z,23.20
2019-04-21T14:16:14.239Z,23.20
2019-04-21T14:18:43.545Z,23.30
2019-04-21T14:21:13.343Z,23.40
2019-04-21T14:23:46.945Z,23.50
2019-04-21T14:26:14.318Z,23.50
2019-04-21T14:28:44.942Z,23.50
2019-04-21T14:31:14.438Z,23.60
2019-04-21T14:33:43.758Z,23.60
2019-04-21T14:36:12.901Z,23.60
2019-04-21T14:38:42.751Z,23.60
2019-04-21T14:41:12.485Z,23.50
2019-04-21T14:43:41.800Z,23.60
2019-04-21T14:46:19.413Z,23.60
2019-04-21T14:49:23.554Z,23.50
2019-04-21T14:52:07.263Z,23.50
2019-04-21T14:55:14.387Z,23.50
2019-04-21T14:57:43.362Z,23.60
2019-04-21T15:00:15.459Z,23.50
2019-04-21T15:02:45.548Z,23.50
2019-04-21T15:05:15.688Z,23.50
2019-04-21T15:07:45.439Z,23.50
2019-04-21T15:10:19.050Z,23.50
2019-04-21T15:12:45.699Z,23.60
2019-04-21T15:15:15.978Z,23.60
2019-04-21T15:17:46.308Z,23.70
2019-04-21T15:20:17.650Z,23.60
2019-04-21T15:22:46.682Z,23.40
2019-04-21T15:25:16.270Z,23.40
2019-04-21T15:27:46.588Z,23.50
2019-04-21T15:30:16.477Z,23.50
2019-04-21T15:32:46.497Z,23.60
2019-04-21T15:35:17.295Z,23.60
2019-04-21T15:37:46.617Z,23.50
2019-04-21T15:40:27.235Z,23.50
2019-04-21T15:42:46.773Z,23.60
2019-04-21T15:45:16.762Z,23.60
2019-04-21T15:47:46.130Z,23.60
2019-04-21T15:50:19.432Z,23.50
2019-04-21T15:52:47.717Z,23.50
2019-04-21T15:55:37.042Z,23.50
2019-04-21T15:58:12.379Z,23.50
2019-04-21T16:00:52.743Z,23.50
2019-04-21T16:03:22.677Z,23.40
2019-04-21T16:05:51.949Z,23.30
2019-04-21T16:08:21.991Z,23.20
2019-04-21T16:10:56.563Z,23.20
2019-04-21T16:13:23.539Z,23.30
2019-04-21T16:15:52.795Z,23.30
2019-04-21T16:18:22.512Z,23.40
2019-04-21T16:20:51.757Z,23.40
2019-04-21T16:23:22.416Z,23.30
2019-04-21T16:25:52.719Z,23.30
2019-04-21T16:28:21.895Z,23.30
2019-04-21T16:30:52.224Z,23.30
2019-04-21T16:33:23.040Z,23.30
2019-04-21T16:35:53.665Z,23.30
2019-04-21T16:38:23.653Z,23.30
2019-04-21T16:40:59.171Z,23.30
2019-04-21T16:43:24.919Z,23.30
2019-04-21T16:45:55.027Z,23.20
2019-04-21T16:48:25.397Z,23.10
2019-04-21T16:50:55.363Z,23.00
2019-04-21T16:53:28.337Z,22.90
2019-04-21T16:56:22.798Z,22.90
2019-04-21T16:58:56.725Z,22.80
2019-04-21T17:01:29.754Z,22.80
2019-04-21T17:04:00.200Z,22.80
2019-04-21T17:06:31.068Z,22.90
2019-04-21T17:09:00.971Z,22.90
2019-04-21T17:11:34.694Z,22.90
2019-04-21T17:14:01.210Z,22.90
2019-04-21T17:17:13.994Z,22.90
2019-04-21T17:19:11.362Z,22.90
2019-04-21T17:21:34.046Z,22.90
2019-04-21T17:24:04.359Z,22.90
2019-04-21T17:26:36.234Z,22.90
2019-04-21T17:29:06.834Z,23.00
2019-04-21T17:31:37.063Z,23.00
2019-04-21T17:34:12.427Z,23.00
2019-04-21T17:36:39.134Z,23.00
2019-04-21T17:39:08.986Z,22.90
2019-04-21T17:41:48.814Z,22.90
2019-04-21T17:44:10.543Z,22.90
2019-04-21T17:46:46.580Z,22.80
2019-04-21T17:49:10.932Z,22.70
2019-04-21T17:51:55.603Z,22.70
2019-04-21T17:54:32.205Z,22.80
2019-04-21T17:57:16.622Z,22.80
2019-04-21T17:59:56.836Z,22.80
2019-04-21T18:02:17.339Z,22.80
2019-04-21T18:04:49.598Z,22.80
2019-04-21T18:07:26.161Z,22.80
2019-04-21T18:10:00.877Z,22.90
2019-04-21T18:12:28.009Z,22.90
2019-04-21T18:14:52.962Z,22.90
2019-04-21T18:17:14.611Z,22.90
2019-04-21T18:19:47.505Z,22.90
2019-04-21T18:22:44.297Z,22.80
2019-04-21T18:25:27.954Z,22.80
2019-04-21T18:27:46.759Z,22.70
2019-04-21T18:30:42.598Z,22.60
2019-04-21T18:33:20.854Z,22.60
2019-04-21T18:36:02.895Z,22.50
2019-04-21T18:39:21.628Z,22.30
2019-04-21T18:41:42.782Z,22.20
2019-04-21T18:47:23.973Z,22.00
2019-04-21T18:49:44.323Z,21.90
2019-04-21T18:52:42.757Z,21.80
2019-04-21T18:55:09.480Z,21.70
2019-04-21T18:57:37.350Z,21.60
2019-04-21T18:59:59.470Z,21.50
2019-04-21T19:02:38.468Z,21.40
2019-04-21T19:05:07.456Z,21.30
2019-04-21T19:07:51.992Z,21.20
2019-04-21T19:13:20.450Z,21.10
2019-04-21T19:15:20.346Z,21.00
2019-04-21T19:20:25.633Z,20.80
2019-04-21T19:22:56.075Z,20.80
2019-04-21T19:25:25.646Z,20.70
2019-04-21T19:27:55.309Z,20.70
2019-04-21T19:30:36.829Z,20.70
2019-04-21T19:33:03.922Z,20.60
2019-04-21T19:35:15.060Z,20.60
2019-04-21T19:37:54.183Z,20.50
2019-04-21T19:40:30.863Z,20.50
2019-04-21T19:43:00.379Z,20.40
2019-04-21T19:45:32.093Z,20.40
2019-04-21T19:48:05.369Z,20.30
2019-04-21T19:50:42.504Z,20.30
2019-04-21T19:53:00.920Z,20.20
2019-04-21T19:55:22.184Z,20.20
2019-04-21T19:57:52.796Z,20.10
2019-04-21T20:00:22.448Z,20.10
2019-04-21T20:02:52.310Z,20.00
2019-04-21T20:05:31.544Z,20.00
2019-04-21T20:08:06.666Z,20.00
2019-04-21T20:10:44.499Z,19.90
2019-04-21T20:13:14.881Z,19.90
2019-04-21T20:15:45.962Z,19.80
2019-04-21T20:18:08.658Z,19.80
2019-04-21T20:20:26.925Z,19.80
2019-04-21T20:22:57.450Z,19.70
2019-04-21T20:25:27.582Z,19.70
2019-04-21T20:28:05.232Z,19.60
2019-04-21T20:30:48.978Z,19.60
2019-04-21T20:35:58.697Z,19.50
2019-04-21T20:38:16.974Z,19.50
2019-04-21T20:40:42.828Z,19.40
2019-04-21T20:43:33.646Z,19.30
2019-04-21T20:45:52.584Z,19.30
2019-04-21T20:48:13.992Z,19.20
2019-04-21T20:50:57.345Z,19.20
2019-04-21T20:53:25.921Z,19.20
2019-04-21T20:55:52.855Z,19.10
2019-04-21T20:58:23.953Z,19.10
2019-04-21T21:01:20.855Z,19.00
2019-04-21T21:03:28.833Z,19.00
2019-04-21T21:05:53.188Z,18.90
2019-04-21T21:08:31.293Z,18.90
2019-04-21T21:10:55.137Z,18.90
2019-04-21T21:13:31.469Z,18.80
2019-04-21T21:16:12.025Z,18.70
2019-04-21T21:18:58.407Z,18.70
2019-04-21T21:21:04.619Z,18.70
2019-04-21T21:23:37.088Z,18.70
2019-04-21T21:26:09.483Z,18.60
2019-04-21T21:28:32.690Z,18.60
2019-04-21T21:31:07.330Z,18.60
2019-04-21T21:33:54.297Z,18.60
2019-04-21T21:36:12.388Z,18.60
2019-04-21T21:38:42.900Z,18.50
2019-04-21T21:41:05.187Z,18.50
2019-04-21T21:43:26.654Z,18.50
2019-04-21T21:45:57.895Z,18.50
2019-04-21T21:48:40.730Z,18.50
2019-04-21T21:51:05.972Z,18.50
2019-04-21T21:53:31.731Z,18.50
2019-04-21T21:55:58.558Z,18.50
2019-04-21T21:58:33.869Z,18.50
2019-04-21T22:01:04.188Z,18.50
2019-04-21T22:03:36.615Z,18.40
2019-04-21T22:06:07.296Z,18.40
2019-04-21T22:09:19.126Z,18.40
2019-04-21T22:11:53.556Z,18.40
2019-04-21T22:14:25.982Z,18.40
2019-04-21T22:17:07.813Z,18.30
2019-04-21T22:19:46.905Z,18.30
2019-04-21T22:22:09.321Z,18.30
2019-04-21T22:24:38.910Z,18.20
2019-04-21T22:26:54.820Z,18.20
2019-04-21T22:29:27.861Z,18.20
2019-04-21T22:32:02.814Z,18.10
2019-04-21T22:34:31.464Z,18.10
2019-04-21T22:37:16.134Z,18.10
2019-04-21T22:40:07.111Z,18.10
2019-04-21T22:42:29.408Z,18.10
2019-04-21T22:44:54.819Z,18.00
2019-04-21T22:47:29.921Z,18.00
2019-04-21T22:49:54.858Z,18.00
2019-04-21T22:52:27.502Z,17.90
2019-04-21T22:54:55.986Z,17.90
2019-04-21T22:57:28.750Z,17.90
2019-04-21T23:00:01.427Z,17.90
2019-04-21T23:02:30.545Z,17.90
2019-04-21T23:04:59.961Z,17.80
2019-04-21T23:07:32.883Z,17.80
2019-04-21T23:09:59.419Z,17.80
2019-04-21T23:12:34.562Z,17.80
2019-04-21T23:15:06.543Z,17.80
2019-04-21T23:17:50.791Z,17.80
2019-04-21T23:20:23.858Z,17.70
2019-04-21T23:23:00.721Z,17.70
2019-04-21T23:25:24.574Z,17.70
2019-04-21T23:27:54.927Z,17.60
2019-04-21T23:30:33.572Z,17.60
2019-04-21T23:32:47.897Z,17.50
2019-04-21T23:35:18.059Z,17.50
2019-04-21T23:37:46.033Z,17.50
2019-04-21T23:40:16.312Z,17.50
2019-04-21T23:42:43.375Z,17.50
2019-04-21T23:45:12.325Z,17.40
2019-04-21T23:47:52.841Z,17.30
2019-04-21T23:50:25.321Z,17.30
2019-04-21T23:52:43.743Z,17.30
2019-04-21T23:55:13.576Z,17.30
2019-04-21T23:57:46.548Z,17.20
